Observation data for Friona on 01/17/2019      Previous  Date  Next       Current Mesonet Observations  Soil Data  Daily Summary Page  Observations in Plain Language
KFAS 170600Z 28016KT 09/M01 A3011 RMK A01 T00891010  RH  050%=      5-min Rain = 0
KFAS 170605Z 28015G20KT 09/M01 A3011 RMK A01 T00881010  RH  051%=      5-min Rain = 0
KFAS 170610Z 28016KT 09/M01 A3011 RMK A01 T00881010  RH  051%=      5-min Rain = 0
KFAS 170615Z 27017G22KT 09/M01 A3011 RMK A01 T00881011  RH  050%=      5-min Rain = 0
KFAS 170620Z 27015G21KT 09/M01 A3011 RMK A01 T00871011  RH  051%=      5-min Rain = 0
KFAS 170625Z 27014KT 08/M01 A3011 RMK A01 T00841012  RH  051%=      5-min Rain = 0
KFAS 170630Z 27015G20KT 08/M01 A301 RMK A01 T00821012  RH  052%=      5-min Rain = 0
KFAS 170635Z 27016KT 08/M01 A301 RMK A01 T00821012  RH  052%=      5-min Rain = 0
KFAS 170640Z 27015KT 08/M01 A301 RMK A01 T00821012  RH  052%=      5-min Rain = 0
KFAS 170645Z 27014G19KT 08/M01 A301 RMK A01 T00811012  RH  052%=      5-min Rain = 0
KFAS 170650Z 27014G21KT 08/M01 A301 RMK A01 T00791013  RH  053%=      5-min Rain = 0
KFAS 170655Z 27015KT 08/M01 A301 RMK A01 T00771014  RH  053%=      5-min Rain = 0
KFAS 170700Z 27015G20KT 08/M01 A301 RMK A01 T00761014  RH  053%=      5-min Rain = 0
KFAS 170705Z 28014KT 08/M01 A301 RMK A01 T00751014  RH  054%=      5-min Rain = 0
KFAS 170710Z 28014G19KT 07/M01 A301 RMK A01 T00731014  RH  054%=      5-min Rain = 0
KFAS 170715Z 28014KT 07/M01 A301 RMK A01 T00721014  RH  055%=      5-min Rain = 0
KFAS 170720Z 27014KT 07/M02 A301 RMK A01 T00721015  RH  054%=      5-min Rain = 0
KFAS 170725Z 27013KT 07/M02 A301 RMK A01 T00711015  RH  055%=      5-min Rain = 0
KFAS 170730Z 27014KT 07/M02 A301 RMK A01 T00711015  RH  055%=      5-min Rain = 0
KFAS 170735Z 27014KT 07/M02 A301 RMK A01 T00701016  RH  055%=      5-min Rain = 0
KFAS 170740Z 27013KT 07/M02 A301 RMK A01 T00681016  RH  055%=      5-min Rain = 0
KFAS 170745Z 27014KT 07/M02 A301 RMK A01 T00661017  RH  056%=      5-min Rain = 0
KFAS 170750Z 27014KT 07/M02 A301 RMK A01 T00671018  RH  055%=      5-min Rain = 0
KFAS 170755Z 27015KT 07/M02 A301 RMK A01 T00661018  RH  055%=      5-min Rain = 0
KFAS 170800Z 27014KT 07/M02 A301 RMK A01 T00651018  RH  056%=      5-min Rain = 0
KFAS 170805Z 26014KT 06/M02 A3011 RMK A01 T00641019  RH  056%=      5-min Rain = 0
KFAS 170810Z 26013KT 06/M02 A3011 RMK A01 T00611020  RH  057%=      5-min Rain = 0
KFAS 170815Z 25012KT 05/M02 A3011 RMK A01 T00531021  RH  059%=      5-min Rain = 0
KFAS 170820Z 26012KT 05/M02 A3011 RMK A01 T00491021  RH  061%=      5-min Rain = 0
KFAS 170825Z 27012KT 05/M02 A3011 RMK A01 T00491020  RH  061%=      5-min Rain = 0
KFAS 170830Z 28011KT 05/M02 A3011 RMK A01 T00501020  RH  061%=      5-min Rain = 0
KFAS 170835Z 28011KT 05/M02 A3011 RMK A01 T00481021  RH  061%=      5-min Rain = 0
KFAS 170840Z 27011KT 05/M02 A3011 RMK A01 T00471021  RH  062%=      5-min Rain = 0
KFAS 170845Z 27011KT 05/M02 A3011 RMK A01 T00471021  RH  062%=      5-min Rain = 0
KFAS 170850Z 27012KT 05/M02 A3012 RMK A01 T00461021  RH  063%=      5-min Rain = 0
KFAS 170855Z 27012KT 05/M02 A3012 RMK A01 T00451021  RH  063%=      5-min Rain = 0
KFAS 170900Z 27011KT 05/M02 A3012 RMK A01 T00451021  RH  063%=      5-min Rain = 0
KFAS 170905Z 27010KT 04/M02 A3012 RMK A01 T00431021  RH  063%=      5-min Rain = 0
KFAS 170910Z 27010KT 04/M02 A3012 RMK A01 T00431021  RH  064%=      5-min Rain = 0
KFAS 170915Z 27012KT 04/M02 A3012 RMK A01 T00441020  RH  063%=      5-min Rain = 0
KFAS 170920Z 28012KT 04/M02 A3012 RMK A01 T00441020  RH  063%=      5-min Rain = 0
KFAS 170925Z 28011KT 04/M02 A3012 RMK A01 T00441021  RH  063%=      5-min Rain = 0
KFAS 170930Z 28010KT 04/M02 A3012 RMK A01 T00421021  RH  064%=      5-min Rain = 0
KFAS 170935Z 28009KT 04/M02 A3013 RMK A01 T00401021  RH  065%=      5-min Rain = 0
KFAS 170940Z 28009KT 04/M02 A3013 RMK A01 T00381022  RH  066%=      5-min Rain = 0
KFAS 170945Z 27009KT 04/M02 A3013 RMK A01 T00351022  RH  067%=      5-min Rain = 0
KFAS 170950Z 28008KT 04/M02 A3013 RMK A01 T00351022  RH  067%=      5-min Rain = 0
KFAS 170955Z 28006KT 03/M03 A3013 RMK A01 T00291026  RH  067%=      5-min Rain = 0
KFAS 171000Z 29006KT 02/M03 A3014 RMK A01 T00221028  RH  070%=      5-min Rain = 0
KFAS 171005Z 28006KT 02/M03 A3014 RMK A01 T00201028  RH  071%=      5-min Rain = 0
KFAS 171010Z 27004KT 02/M03 A3014 RMK A01 T00191027  RH  072%=      5-min Rain = 0
KFAS 171015Z 29006KT 02/M03 A3014 RMK A01 T00201027  RH  071%=      5-min Rain = 0
KFAS 171020Z 30007KT 02/M03 A3014 RMK A01 T00151030  RH  072%=      5-min Rain = 0
KFAS 171025Z 31007KT 01/M03 A3014 RMK A01 T00101032  RH  074%=      5-min Rain = 0
KFAS 171030Z 31008KT 01/M03 A3013 RMK A01 T00091030  RH  076%=      5-min Rain = 0
KFAS 171035Z 30010KT 01/M03 A3013 RMK A01 T00131025  RH  076%=      5-min Rain = 0
KFAS 171040Z 28010KT 02/M02 A3014 RMK A01 T00191024  RH  074%=      5-min Rain = 0
KFAS 171045Z 26009KT 02/M03 A3014 RMK A01 T00191027  RH  072%=      5-min Rain = 0
KFAS 171050Z 26009KT 01/M03 A3014 RMK A01 T00121029  RH  075%=      5-min Rain = 0
KFAS 171055Z 26009KT 01/M03 A3014 RMK A01 T00141026  RH  075%=      5-min Rain = 0
KFAS 171100Z 26009KT 02/M03 A3014 RMK A01 T00161026  RH  075%=      5-min Rain = 0
KFAS 171105Z 26008KT 02/M03 A3013 RMK A01 T00151026  RH  075%=      5-min Rain = 0
KFAS 171110Z 25009KT 01/M03 A3013 RMK A01 T00121028  RH  075%=      5-min Rain = 0
KFAS 171115Z 26011KT 01/M02 A3013 RMK A01 T00121024  RH  077%=      5-min Rain = 0
KFAS 171120Z 27010KT 01/M02 A3013 RMK A01 T00141024  RH  076%=      5-min Rain = 0
KFAS 171125Z 27009KT 01/M02 A3013 RMK A01 T00131024  RH  077%=      5-min Rain = 0
KFAS 171130Z 27008KT 01/M03 A3013 RMK A01 T00121026  RH  076%=      5-min Rain = 0
KFAS 171135Z 28008KT 01/M03 A3013 RMK A01 T00101027  RH  077%=      5-min Rain = 0
KFAS 171140Z 31005KT 00/M04 A3013 RMK A01 T00031035  RH  076%=      5-min Rain = 0
KFAS 171145Z 32005KT M01/M04 A3013 RMK A01 T10101041  RH  079%=      5-min Rain = 0
KFAS 171150Z 35005KT M02/M05 A3013 RMK A01 T10171046  RH  081%=      5-min Rain = 0
KFAS 171155Z 02005KT M02/M04 A3013 RMK A01 T10191043  RH  084%=      5-min Rain = 0
KFAS 171200Z 33004KT M02/M04 A3013 RMK A01 T10171040  RH  085%=      5-min Rain = 0
KFAS 171205Z 26004KT M02/M04 A3013 RMK A01 T10171043  RH  083%=      5-min Rain = 0
KFAS 171210Z 22006KT M03/M05 A3014 RMK A01 T10281054  RH  083%=      5-min Rain = 0
KFAS 171215Z 19006KT M03/M05 A3014 RMK A01 T10331054  RH  086%=      5-min Rain = 0
KFAS 171220Z 20006KT M03/M04 A3015 RMK A01 T10271043  RH  089%=      5-min Rain = 0
KFAS 171225Z 25004KT M02/M04 A3014 RMK A01 T10191035  RH  089%=      5-min Rain = 0
KFAS 171230Z 25007KT M02/M04 A3015 RMK A01 T10171036  RH  088%=      5-min Rain = 0
KFAS 171235Z 24004KT M02/M05 A3016 RMK A01 T10241045  RH  086%=      5-min Rain = 0
KFAS 171240Z 24003KT M02/M04 A3016 RMK A01 T10241042  RH  088%=      5-min Rain = 0
KFAS 171245Z 27003KT M02/M04 A3017 RMK A01 T10191035  RH  089%=      5-min Rain = 0
KFAS 171250Z 02001KT M01/M03 A3018 RMK A01 T10131031  RH  088%=      5-min Rain = 0
KFAS 171255Z 25002KT M01/M03 A3018 RMK A01 T10071026  RH  087%=      5-min Rain = 0
KFAS 171300Z 28003KT M00/M02 A3018 RMK A01 T10021024  RH  086%=      5-min Rain = 0
KFAS 171305Z 31005KT M00/M03 A3018 RMK A01 T10021030  RH  082%=      5-min Rain = 0
KFAS 171310Z 33005KT M02/M04 A3017 RMK A01 T10151044  RH  081%=      5-min Rain = 0
KFAS 171315Z 32006KT M02/M04 A3017 RMK A01 T10221044  RH  085%=      5-min Rain = 0
KFAS 171320Z 31007KT M02/M04 A3017 RMK A01 T10231043  RH  087%=      5-min Rain = 0
KFAS 171325Z 31006KT M02/M04 A3017 RMK A01 T10221041  RH  087%=      5-min Rain = 0
KFAS 171330Z 30004KT M02/M04 A3018 RMK A01 T10221041  RH  087%=      5-min Rain = 0
KFAS 171335Z 30002KT M02/M04 A3018 RMK A01 T10211039  RH  088%=      5-min Rain = 0
KFAS 171340Z 23001KT M03/M05 A3018 RMK A01 T10261048  RH  085%=      5-min Rain = 0
KFAS 171345Z 24003KT M03/M05 A3018 RMK A01 T10311049  RH  087%=      5-min Rain = 0
KFAS 171350Z 26003KT M03/M05 A3018 RMK A01 T10311048  RH  089%=      5-min Rain = 0
KFAS 171355Z 24005KT M03/M05 A3018 RMK A01 T10301046  RH  089%=      5-min Rain = 0
KFAS 171400Z 22008KT M03/M05 A3019 RMK A01 T10321047  RH  090%=      5-min Rain = 0
KFAS 171405Z 21008KT M03/M04 A3019 RMK A01 T10301044  RH  090%=      5-min Rain = 0
KFAS 171410Z 23007KT M03/M04 A3019 RMK A01 T10291043  RH  090%=      5-min Rain = 0
KFAS 171415Z 25007KT M02/M03 A3019 RMK A01 T10201032  RH  093%=      5-min Rain = 0
KFAS 171420Z 26007KT M01/M02 A3019 RMK A01 T10101024  RH  091%=      5-min Rain = 0
KFAS 171425Z 26008KT M01/M02 A3019 RMK A01 T10061024  RH  088%=      5-min Rain = 0
KFAS 171430Z 26007KT M00/M03 A3019 RMK A01 T10041025  RH  087%=      5-min Rain = 0
KFAS 171435Z 28006KT M00/M02 A3019 RMK A01 T10031024  RH  086%=      5-min Rain = 0
KFAS 171440Z 27005KT M00/M02 A3019 RMK A01 T10011024  RH  085%=      5-min Rain = 0
KFAS 171445Z 27005KT 00/M02 A3019 RMK A01 T00011023  RH  084%=      5-min Rain = 0
KFAS 171450Z 26004KT 00/M02 A3019 RMK A01 T00041021  RH  084%=      5-min Rain = 0
KFAS 171455Z 30004KT 01/M02 A3019 RMK A01 T00071020  RH  083%=      5-min Rain = 0
KFAS 171500Z 29005KT 01/M02 A3018 RMK A01 T00091019  RH  082%=      5-min Rain = 0
KFAS 171505Z 29004KT 01/M02 A3018 RMK A01 T00121017  RH  082%=      5-min Rain = 0
KFAS 171510Z 28004KT 02/M02 A3019 RMK A01 T00161015  RH  080%=      5-min Rain = 0
KFAS 171515Z 28005KT 02/M01 A3019 RMK A01 T00201013  RH  079%=      5-min Rain = 0
KFAS 171520Z 28003KT 03/M01 A3019 RMK A01 T00281009  RH  078%=      5-min Rain = 0
KFAS 171525Z 28004KT 04/M01 A3019 RMK A01 T00351008  RH  074%=      5-min Rain = 0
KFAS 171530Z 28004KT 04/M01 A3019 RMK A01 T00411006  RH  072%=      5-min Rain = 0
KFAS 171535Z 25004KT 05/M01 A3019 RMK A01 T00471005  RH  070%=      5-min Rain = 0
KFAS 171540Z 23004KT 05/M01 A3019 RMK A01 T00501006  RH  068%=      5-min Rain = 0
KFAS 171545Z 24005KT 05/M01 A302 RMK A01 T00521006  RH  067%=      5-min Rain = 0
KFAS 171550Z 25007KT 06/M01 A302 RMK A01 T00561005  RH  066%=      5-min Rain = 0
KFAS 171555Z 24006KT 06/M01 A302 RMK A01 T00611005  RH  064%=      5-min Rain = 0
KFAS 171600Z 22005KT 07/M00 A3021 RMK A01 T00661004  RH  062%=      5-min Rain = 0
KFAS 171605Z 24004KT 07/M00 A3021 RMK A01 T00721004  RH  059%=      5-min Rain = 0
KFAS 171610Z 24002KT 08/M00 A3021 RMK A01 T00771003  RH  058%=      5-min Rain = 0
KFAS 171615Z 21003KT 08/M00 A3021 RMK A01 T00841004  RH  055%=      5-min Rain = 0
KFAS 171620Z 22001KT 09/M01 A3021 RMK A01 T00901005  RH  052%=      5-min Rain = 0
KFAS 171625Z 30001KT 10/M01 A3021 RMK A01 T00961005  RH  050%=      5-min Rain = 0
KFAS 171630Z 30001KT 10/M01 A3021 RMK A01 T01021006  RH  047%=      5-min Rain = 0
KFAS 171635Z 29002KT 10/M01 A3021 RMK A01 T01041011  RH  045%=      5-min Rain = 0
KFAS 171640Z 26000KT 11/M01 A3021 RMK A01 T01071011  RH  044%=      5-min Rain = 0
KFAS 171645Z 10003KT 11/M01 A3022 RMK A01 T01131005  RH  044%=      5-min Rain = 0
KFAS 171650Z 09002KT 11/M01 A3021 RMK A01 T01131005  RH  044%=      5-min Rain = 0
KFAS 171655Z 10002KT 11/M01 A3021 RMK A01 T01141006  RH  044%=      5-min Rain = 0
KFAS 171700Z 14001KT 12/M01 A3022 RMK A01 T01201008  RH  042%=      5-min Rain = 0
KFAS 171705Z 19002KT 13/M01 A3022 RMK A01 T01281014  RH  038%=      5-min Rain = 0
KFAS 171710Z 18003KT 13/M02 A3022 RMK A01 T01301023  RH  035%=      5-min Rain = 0
KFAS 171715Z 19003KT 13/M03 A3022 RMK A01 T01281031  RH  033%=      5-min Rain = 0
KFAS 171720Z 18004KT 13/M03 A3022 RMK A01 T01281034  RH  032%=      5-min Rain = 0
KFAS 171725Z 17003KT 13/M03 A3022 RMK A01 T01291031  RH  033%=      5-min Rain = 0
KFAS 171730Z 19003KT 13/M03 A3022 RMK A01 T01311029  RH  033%=      5-min Rain = 0
KFAS 171735Z 22003KT 13/M03 A3022 RMK A01 T01331028  RH  033%=      5-min Rain = 0
KFAS 171740Z 16004KT 14/M02 A3022 RMK A01 T01391024  RH  032%=      5-min Rain = 0
KFAS 171745Z 18004KT 14/M03 A3022 RMK A01 T01421027  RH  031%=      5-min Rain = 0
KFAS 171750Z 21004KT 14/M03 A3022 RMK A01 T01431028  RH  031%=      5-min Rain = 0
KFAS 171755Z 17003KT 14/M03 A3022 RMK A01 T01431030  RH  030%=      5-min Rain = 0
KFAS 171800Z 15004KT 15/M03 A3022 RMK A01 T01461029  RH  030%=      5-min Rain = 0
KFAS 171805Z 16004KT 15/M03 A3022 RMK A01 T01471028  RH  030%=      5-min Rain = 0
KFAS 171810Z 15004KT 15/M03 A3021 RMK A01 T01491029  RH  030%=      5-min Rain = 0
KFAS 171815Z 17004KT 15/M03 A3021 RMK A01 T01501027  RH  030%=      5-min Rain = 0
KFAS 171820Z 20005KT 15/M03 A302 RMK A01 T01531026  RH  029%=      5-min Rain = 0
KFAS 171825Z 21006KT 15/M03 A302 RMK A01 T01531028  RH  029%=      5-min Rain = 0
KFAS 171830Z 20006KT 15/M03 A302 RMK A01 T01521031  RH  029%=      5-min Rain = 0
KFAS 171835Z 19005KT 15/M03 A3019 RMK A01 T01531031  RH  028%=      5-min Rain = 0
KFAS 171840Z 19006KT 15/M03 A3019 RMK A01 T01541030  RH  028%=      5-min Rain = 0
KFAS 171845Z 18006KT 16/M03 A3018 RMK A01 T01561030  RH  028%=      5-min Rain = 0
KFAS 171850Z 18006KT 16/M03 A3018 RMK A01 T01581029  RH  028%=      5-min Rain = 0
KFAS 171855Z 18007KT 16/M03 A3017 RMK A01 T01601028  RH  028%=      5-min Rain = 0
KFAS 171900Z 21008KT 16/M03 A3017 RMK A01 T01611031  RH  027%=      5-min Rain = 0
KFAS 171905Z 19008KT 16/M03 A3017 RMK A01 T01621031  RH  027%=      5-min Rain = 0
KFAS 171910Z 18009KT 16/M03 A3017 RMK A01 T01611033  RH  026%=      5-min Rain = 0
KFAS 171915Z 18008KT 16/M03 A3016 RMK A01 T01611030  RH  027%=      5-min Rain = 0
KFAS 171920Z 19009KT 16/M03 A3016 RMK A01 T01641031  RH  026%=      5-min Rain = 0
KFAS 171925Z 19009G14KT 16/M03 A3015 RMK A01 T01641033  RH  026%=      5-min Rain = 0
KFAS 171930Z 19010KT 17/M03 A3015 RMK A01 T01671030  RH  026%=      5-min Rain = 0
KFAS 171935Z 19009G14KT 17/M03 A3014 RMK A01 T01661032  RH  026%=      5-min Rain = 0
KFAS 171940Z 19009G15KT 17/M03 A3014 RMK A01 T01671031  RH  026%=      5-min Rain = 0
KFAS 171945Z 20011KT 17/M03 A3013 RMK A01 T01681033  RH  025%=      5-min Rain = 0
KFAS 171950Z 19011KT 17/M03 A3013 RMK A01 T01701033  RH  025%=      5-min Rain = 0
KFAS 171955Z 18012KT 17/M03 A3013 RMK A01 T01711031  RH  025%=      5-min Rain = 0
KFAS 172000Z 20012KT 17/M03 A3012 RMK A01 T01731031  RH  025%=      5-min Rain = 0
KFAS 172005Z 20013KT 17/M03 A3012 RMK A01 T01741031  RH  025%=      5-min Rain = 0
KFAS 172010Z 21012G18KT 18/M03 A3012 RMK A01 T01761031  RH  024%=      5-min Rain = 0
KFAS 172015Z 21013KT 18/M03 A3011 RMK A01 T01781033  RH  024%=      5-min Rain = 0
KFAS 172020Z 21013KT 18/M03 A3011 RMK A01 T01761034  RH  024%=      5-min Rain = 0
KFAS 172025Z 21013KT 18/M03 A3011 RMK A01 T01761034  RH  024%=      5-min Rain = 0
KFAS 172030Z 20012KT 18/M03 A301 RMK A01 T01771032  RH  024%=      5-min Rain = 0
KFAS 172035Z 21010KT 18/M03 A301 RMK A01 T01801031  RH  024%=      5-min Rain = 0
KFAS 172040Z 18010G15KT 18/M03 A301 RMK A01 T01821030  RH  024%=      5-min Rain = 0
KFAS 172045Z 19011G17KT 18/M04 A3009 RMK A01 T01821037  RH  022%=      5-min Rain = 0
KFAS 172050Z 19010KT 18/M04 A3009 RMK A01 T01811039  RH  022%=      5-min Rain = 0
KFAS 172055Z 19010G15KT 18/M04 A3008 RMK A01 T01821041  RH  022%=      5-min Rain = 0
KFAS 172100Z 20011KT 18/M04 A3008 RMK A01 T01841039  RH  022%=      5-min Rain = 0
KFAS 172105Z 20012KT 19/M04 A3008 RMK A01 T01871039  RH  021%=      5-min Rain = 0
KFAS 172110Z 21011KT 19/M04 A3008 RMK A01 T01871041  RH  021%=      5-min Rain = 0
KFAS 172115Z 22011KT 19/M05 A3008 RMK A01 T01891046  RH  020%=      5-min Rain = 0
KFAS 172120Z 23010KT 19/M05 A3008 RMK A01 T01891048  RH  020%=      5-min Rain = 0
KFAS 172125Z 22010KT 19/M05 A3008 RMK A01 T01891046  RH  020%=      5-min Rain = 0
KFAS 172130Z 21011KT 19/M04 A3008 RMK A01 T01901042  RH  021%=      5-min Rain = 0
KFAS 172135Z 21011KT 19/M04 A3008 RMK A01 T01891040  RH  021%=      5-min Rain = 0
KFAS 172140Z 21010G15KT 19/M04 A3008 RMK A01 T01881037  RH  022%=      5-min Rain = 0
KFAS 172145Z 21011KT 19/M03 A3007 RMK A01 T01891034  RH  022%=      5-min Rain = 0
KFAS 172150Z 21011KT 19/M03 A3007 RMK A01 T01891033  RH  022%=      5-min Rain = 0
KFAS 172155Z 21011KT 19/M03 A3007 RMK A01 T01891033  RH  022%=      5-min Rain = 0
KFAS 172200Z 21011KT 19/M03 A3007 RMK A01 T01881031  RH  023%=      5-min Rain = 0
KFAS 172205Z 21010KT 19/M03 A3007 RMK A01 T01901028  RH  023%=      5-min Rain = 0
KFAS 172210Z 20011KT 19/M03 A3007 RMK A01 T01891028  RH  023%=      5-min Rain = 0
KFAS 172215Z 20012KT 19/M03 A3007 RMK A01 T01861028  RH  023%=      5-min Rain = 0
KFAS 172220Z 19011G16KT 19/M03 A3007 RMK A01 T01851027  RH  024%=      5-min Rain = 0
KFAS 172225Z 19012KT 18/M02 A3007 RMK A01 T01841024  RH  024%=      5-min Rain = 0
KFAS 172230Z 19011KT 19/M02 A3006 RMK A01 T01851023  RH  025%=      5-min Rain = 0
KFAS 172235Z 19012KT 19/M02 A3006 RMK A01 T01851024  RH  024%=      5-min Rain = 0
KFAS 172240Z 19010KT 19/M02 A3006 RMK A01 T01851024  RH  024%=      5-min Rain = 0
KFAS 172245Z 19011KT 19/M02 A3006 RMK A01 T01861023  RH  024%=      5-min Rain = 0
KFAS 172250Z 19011G17KT 19/M03 A3006 RMK A01 T01851025  RH  024%=      5-min Rain = 0
KFAS 172255Z 20012KT 19/M03 A3005 RMK A01 T01851028  RH  024%=      5-min Rain = 0
KFAS 172300Z 20011KT 18/M03 A3005 RMK A01 T01841028  RH  024%=      5-min Rain = 0
KFAS 172305Z 19011KT 18/M03 A3005 RMK A01 T01821029  RH  024%=      5-min Rain = 0
KFAS 172310Z 19011KT 18/M03 A3005 RMK A01 T01791026  RH  025%=      5-min Rain = 0
KFAS 172315Z 19011KT 18/M03 A3005 RMK A01 T01761026  RH  025%=      5-min Rain = 0
KFAS 172320Z 18011KT 17/M03 A3005 RMK A01 T01741026  RH  026%=      5-min Rain = 0
KFAS 172325Z 19010KT 17/M03 A3005 RMK A01 T01721026  RH  026%=      5-min Rain = 0
KFAS 172330Z 20008KT 17/M03 A3005 RMK A01 T01671025  RH  027%=      5-min Rain = 0
KFAS 172335Z 20008KT 16/M03 A3005 RMK A01 T01621026  RH  028%=      5-min Rain = 0
KFAS 172340Z 20007KT 16/M03 A3005 RMK A01 T01561027  RH  029%=      5-min Rain = 0
KFAS 172345Z 20008KT 15/M03 A3005 RMK A01 T01491027  RH  030%=      5-min Rain = 0
KFAS 172350Z 20008KT 14/M03 A3005 RMK A01 T01411026  RH  032%=      5-min Rain = 0
KFAS 172355Z 20008KT 14/M03 A3005 RMK A01 T01351027  RH  033%=      5-min Rain = 0
KFAS 180000Z 20007KT 13/M03 A3005 RMK A01 T01291028  RH  034%=      5-min Rain = 0
KFAS 180005Z 20006KT 12/M03 A3005 RMK A01 T01211028  RH  035%=      5-min Rain = 0
KFAS 180010Z 20006KT 11/M03 A3005 RMK A01 T01141028  RH  037%=      5-min Rain = 0
KFAS 180015Z 20007KT 11/M03 A3005 RMK A01 T01081029  RH  039%=      5-min Rain = 0
KFAS 180020Z 20007KT 11/M03 A3005 RMK A01 T01051028  RH  039%=      5-min Rain = 0
KFAS 180025Z 19007KT 10/M03 A3005 RMK A01 T01001030  RH  040%=      5-min Rain = 0
KFAS 180030Z 20007KT 10/M03 A3005 RMK A01 T00971029  RH  041%=      5-min Rain = 0
KFAS 180035Z 20007KT 10/M03 A3005 RMK A01 T00951030  RH  042%=      5-min Rain = 0
KFAS 180040Z 19007KT 09/M03 A3005 RMK A01 T00921032  RH  042%=      5-min Rain = 0
KFAS 180045Z 18007KT 09/M03 A3005 RMK A01 T00861033  RH  043%=      5-min Rain = 0
KFAS 180050Z 18007KT 08/M03 A3005 RMK A01 T00781030  RH  046%=      5-min Rain = 0
KFAS 180055Z 18008KT 07/M03 A3005 RMK A01 T00731031  RH  048%=      5-min Rain = 0
KFAS 180100Z 18008KT 07/M03 A3005 RMK A01 T00731031  RH  048%=      5-min Rain = 0
KFAS 180105Z 19008KT 08/M03 A3005 RMK A01 T00781032  RH  046%=      5-min Rain = 0
KFAS 180110Z 19008KT 08/M03 A3005 RMK A01 T00831033  RH  044%=      5-min Rain = 0
KFAS 180115Z 18008KT 08/M04 A3005 RMK A01 T00831035  RH  043%=      5-min Rain = 0
KFAS 180120Z 19008KT 09/M03 A3005 RMK A01 T00851034  RH  043%=      5-min Rain = 0
KFAS 180125Z 19009KT 09/M03 A3004 RMK A01 T00861034  RH  043%=      5-min Rain = 0
KFAS 180130Z 20010KT 09/M03 A3004 RMK A01 T00871034  RH  043%=      5-min Rain = 0
KFAS 180135Z 20011KT 08/M04 A3004 RMK A01 T00801035  RH  044%=      5-min Rain = 0
KFAS 180140Z 20011KT 08/M04 A3005 RMK A01 T00781036  RH  045%=      5-min Rain = 0
KFAS 180145Z 18010KT 08/M04 A3005 RMK A01 T00771036  RH  045%=      5-min Rain = 0
KFAS 180150Z 20010KT 08/M04 A3005 RMK A01 T00791037  RH  044%=      5-min Rain = 0
KFAS 180155Z 20010KT 08/M04 A3005 RMK A01 T00801040  RH  043%=      5-min Rain = 0
KFAS 180200Z 20011KT 08/M04 A3005 RMK A01 T00791040  RH  043%=      5-min Rain = 0
KFAS 180205Z 21011KT 08/M04 A3005 RMK A01 T00781041  RH  043%=      5-min Rain = 0
KFAS 180210Z 21012KT 08/M04 A3005 RMK A01 T00811042  RH  042%=      5-min Rain = 0
KFAS 180215Z 20011KT 08/M04 A3005 RMK A01 T00841043  RH  040%=      5-min Rain = 0
KFAS 180220Z 21011KT 08/M04 A3005 RMK A01 T00821043  RH  041%=      5-min Rain = 0
KFAS 180225Z 20011KT 08/M04 A3005 RMK A01 T00821044  RH  041%=      5-min Rain = 0
KFAS 180230Z 20010KT 07/M04 A3005 RMK A01 T00741044  RH  043%=      5-min Rain = 0
KFAS 180235Z 20011KT 07/M04 A3005 RMK A01 T00711044  RH  044%=      5-min Rain = 0
KFAS 180240Z 20010KT 07/M05 A3005 RMK A01 T00701045  RH  044%=      5-min Rain = 0
KFAS 180245Z 20010KT 07/M05 A3004 RMK A01 T00651045  RH  045%=      5-min Rain = 0
KFAS 180250Z 20010KT 06/M05 A3004 RMK A01 T00621045  RH  046%=      5-min Rain = 0
KFAS 180255Z 19010KT 06/M05 A3004 RMK A01 T00601045  RH  047%=      5-min Rain = 0
KFAS 180300Z 19010KT 06/M05 A3004 RMK A01 T00571045  RH  048%=      5-min Rain = 0
KFAS 180305Z 17011KT 06/M04 A3004 RMK A01 T00551043  RH  049%=      5-min Rain = 0
KFAS 180310Z 20011KT 06/M04 A3004 RMK A01 T00601043  RH  048%=      5-min Rain = 0
KFAS 180315Z 19009G14KT 06/M05 A3003 RMK A01 T00601046  RH  047%=      5-min Rain = 0
KFAS 180320Z 19009KT 06/M05 A3003 RMK A01 T00601045  RH  047%=      5-min Rain = 0
KFAS 180325Z 19010KT 06/M04 A3003 RMK A01 T00591044  RH  048%=      5-min Rain = 0
KFAS 180330Z 20012KT 06/M05 A3002 RMK A01 T00601047  RH  046%=      5-min Rain = 0
KFAS 180335Z 20012KT 07/M05 A3002 RMK A01 T00661049  RH  044%=      5-min Rain = 0
KFAS 180340Z 21013KT 07/M05 A3002 RMK A01 T00721049  RH  042%=      5-min Rain = 0
KFAS 180345Z 21012KT 08/M05 A3002 RMK A01 T00761050  RH  041%=      5-min Rain = 0
KFAS 180350Z 21013KT 08/M05 A3001 RMK A01 T00781051  RH  040%=      5-min Rain = 0
KFAS 180355Z 21013KT 08/M05 A3001 RMK A01 T00791053  RH  039%=      5-min Rain = 0
KFAS 180400Z 21013KT 08/M05 A3001 RMK A01 T00791054  RH  039%=      5-min Rain = 0
KFAS 180405Z 21014KT 08/M05 A3001 RMK A01 T00781054  RH  039%=      5-min Rain = 0
KFAS 180410Z 21013KT 08/M05 A3001 RMK A01 T00781054  RH  039%=      5-min Rain = 0
KFAS 180415Z 21012KT 08/M05 A3001 RMK A01 T00751054  RH  040%=      5-min Rain = 0
KFAS 180420Z 21013KT 07/M05 A3001 RMK A01 T00741053  RH  040%=      5-min Rain = 0
KFAS 180425Z 21013KT 08/M05 A30 RMK A01 T00761053  RH  040%=      5-min Rain = 0
KFAS 180430Z 20013KT 08/M05 A30 RMK A01 T00781052  RH  040%=      5-min Rain = 0
KFAS 180435Z 20012KT 07/M05 A2999 RMK A01 T00741050  RH  041%=      5-min Rain = 0
KFAS 180440Z 21012KT 07/M05 A30 RMK A01 T00681050  RH  043%=      5-min Rain = 0
KFAS 180445Z 21012KT 07/M05 A30 RMK A01 T00711049  RH  042%=      5-min Rain = 0
KFAS 180450Z 21011KT 08/M05 A30 RMK A01 T00751049  RH  041%=      5-min Rain = 0
KFAS 180455Z 20011KT 07/M05 A30 RMK A01 T00731049  RH  042%=      5-min Rain = 0
KFAS 180500Z 20011KT 07/M05 A30 RMK A01 T00661048  RH  044%=      5-min Rain = 0
KFAS 180505Z 20012KT 06/M05 A30 RMK A01 T00621046  RH  046%=      5-min Rain = 0
KFAS 180510Z 20012KT 06/M05 A2999 RMK A01 T00641046  RH  045%=      5-min Rain = 0
KFAS 180515Z 20012KT 06/M05 A2999 RMK A01 T00641045  RH  046%=      5-min Rain = 0
KFAS 180520Z 20013KT 06/M04 A2999 RMK A01 T00631043  RH  047%=      5-min Rain = 0
KFAS 180525Z 20014KT 07/M04 A30 RMK A01 T00661041  RH  047%=      5-min Rain = 0
KFAS 180530Z 21012KT 07/M04 A2999 RMK A01 T00681038  RH  047%=      5-min Rain = 0
KFAS 180535Z 21011KT 07/M04 A2999 RMK A01 T00681038  RH  047%=      5-min Rain = 0
KFAS 180540Z 21011KT 07/M04 A2999 RMK A01 T00661038  RH  048%=      5-min Rain = 0
KFAS 180545Z 21011KT 06/M04 A2999 RMK A01 T00641038  RH  048%=      5-min Rain = 0
KFAS 180550Z 21012KT 06/M04 A2999 RMK A01 T00611038  RH  049%=      5-min Rain = 0
KFAS 180555Z 21014KT 06/M04 A2999 RMK A01 T00621037  RH  049%=      5-min Rain = 0

Page generated in 0.009 seconds.